sensor_id;sensor_type;location;lat;lon;timestamp;pressure;altitude;pressure_sealevel;temperature;humidity
31162;BME280;17796;49.296;-117.656;2023-02-23T00:09:06;95800;;;-8.01608;40.98479
31162;BME280;17796;49.296;-117.656;2023-02-23T00:24:12;95800;;;-8.55366;42.65426
31162;BME280;17796;49.296;-117.656;2023-02-23T00:39:15;95800;;;-8.90517;41.092
31162;BME280;17796;49.296;-117.656;2023-02-23T00:54:20;95900;;;-8.25645;43.10841
31162;BME280;17796;49.296;-117.656;2023-02-23T01:09:25;95900;;;-8.45713;44.88329
31162;BME280;17796;49.296;-117.656;2023-02-23T01:24:29;95900;;;-8.59684;43.03193
31162;BME280;17796;49.296;-117.656;2023-02-23T01:39:33;95900;;;-9.34304;42.2034
31162;BME280;17796;49.296;-117.656;2023-02-23T01:54:37;95900;;;-8.8496;42.47085
31162;BME280;17796;49.296;-117.656;2023-02-23T02:09:43;95900;;;-8.96137;47.05197
31162;BME280;17796;49.296;-117.656;2023-02-23T02:24:54;95900;;;-9.26143;47.26997
31162;BME280;17796;49.296;-117.656;2023-02-23T02:40:41;96000;;;-9.10648;46.24971
31162;BME280;17796;49.296;-117.656;2023-02-23T02:55:48;96000;;;-8.73402;46.52392
31162;BME280;17796;49.296;-117.656;2023-02-23T03:10:55;96000;;;-9.05853;44.57302
31162;BME280;17796;49.296;-117.656;2023-02-23T03:26:04;96000;;;-11.01577;48.66278
31162;BME280;17796;49.296;-117.656;2023-02-23T03:41:10;96000;;;-10.86558;50.27213
31162;BME280;17796;49.296;-117.656;2023-02-23T03:56:18;96000;;;-10.81255;50.06481
31162;BME280;17796;49.296;-117.656;2023-02-23T04:11:27;96000;;;-9.94031;47.78319
31162;BME280;17796;49.296;-117.656;2023-02-23T04:26:37;96000;;;-10.79604;48.85785
31162;BME280;17796;49.296;-117.656;2023-02-23T04:41:41;96100;;;-11.24756;49.44334
31162;BME280;17796;49.296;-117.656;2023-02-23T04:56:45;96100;;;-11.00592;47.84745
31162;BME280;17796;49.296;-117.656;2023-02-23T05:11:48;96100;;;-10.73825;46.02932
31162;BME280;17796;49.296;-117.656;2023-02-23T05:26:52;96100;;;-11.30122;46.50806
31162;BME280;17796;49.296;-117.656;2023-02-23T05:41:56;96100;;;-11.42473;46.20963
31162;BME280;17796;49.296;-117.656;2023-02-23T05:56:59;96100;;;-12.19027;48.99315
31162;BME280;17796;49.296;-117.656;2023-02-23T06:12:03;96100;;;-12.14487;48.03688
31162;BME280;17796;49.296;-117.656;2023-02-23T06:27:07;96100;;;-11.64605;44.91138
31162;BME280;17796;49.296;-117.656;2023-02-23T06:42:10;96100;;;-12.09946;48.12395
31162;BME280;17796;49.296;-117.656;2023-02-23T06:57:14;96100;;;-12.30268;44.6117
31162;BME280;17796;49.296;-117.656;2023-02-23T07:12:18;96100;;;-12.50811;42.0635
31162;BME280;17796;49.296;-117.656;2023-02-23T07:27:21;96100;;;-13.14219;43.3463
31162;BME280;17796;49.296;-117.656;2023-02-23T07:42:25;96200;;;-13.37493;45.16294
31162;BME280;17796;49.296;-117.656;2023-02-23T07:57:30;96200;;;-13.35429;44.55993
31162;BME280;17796;49.296;-117.656;2023-02-23T08:12:34;96200;;;-13.35429;44.45309
31162;BME280;17796;49.296;-117.656;2023-02-23T08:27:37;96200;;;-13.02884;45.29999
31162;BME280;17796;49.296;-117.656;2023-02-23T08:42:41;96200;;;-12.17694;41.753
31162;BME280;17796;49.296;-117.656;2023-02-23T08:57:45;96200;;;-12.75069;43.20463
31162;BME280;17796;49.296;-117.656;2023-02-23T09:12:48;96200;;;-12.7834;41.00398
31162;BME280;17796;49.296;-117.656;2023-02-23T09:27:52;96200;;;-12.7018;41.8138
31162;BME280;17796;49.296;-117.656;2023-02-23T09:42:59;96200;;;-12.75958;43.27937
31162;BME280;17796;49.296;-117.656;2023-02-23T09:58:11;96300;;;-12.97232;44.00229
31162;BME280;17796;49.296;-117.656;2023-02-23T10:13:24;96300;;;-12.94755;38.95093
31162;BME280;17796;49.296;-117.656;2023-02-23T10:28:35;96300;;;-13.13139;42.94018
31162;BME280;17796;49.296;-117.656;2023-02-23T10:43:39;96300;;;-13.22951;44.31712
31162;BME280;17796;49.296;-117.656;2023-02-23T10:58:43;96300;;;-13.08377;43.52931
31162;BME280;17796;49.296;-117.656;2023-02-23T11:13:49;96300;;;-12.52716;41.32929
31162;BME280;17796;49.296;-117.656;2023-02-23T11:28:54;96300;;;-13.22824;43.85758
31162;BME280;17796;49.296;-117.656;2023-02-23T11:44:00;96300;;;-13.4343;47.56336
31162;BME280;17796;49.296;-117.656;2023-02-23T11:59:06;96300;;;-13.01042;42.7019
31162;BME280;17796;49.296;-117.656;2023-02-23T12:14:21;96300;;;-14.11061;40.80208
31162;BME280;17796;49.296;-117.656;2023-02-23T12:29:33;96400;;;-14.16109;43.14875
31162;BME280;17796;49.296;-117.656;2023-02-23T12:44:44;96400;;;-13.52162;42.03481
31162;BME280;17796;49.296;-117.656;2023-02-23T12:59:58;96400;;;-14.23285;43.75508
31162;BME280;17796;49.296;-117.656;2023-02-23T13:15:40;96400;;;-14.02805;36.05933
31162;BME280;17796;49.296;-117.656;2023-02-23T13:30:53;96400;;;-14.64053;41.52419
31162;BME280;17796;49.296;-117.656;2023-02-23T13:46:04;96400;;;-14.84247;39.92225
31162;BME280;17796;49.296;-117.656;2023-02-23T14:01:20;96400;;;-14.80119;40.96732
31162;BME280;17796;49.296;-117.656;2023-02-23T14:16:28;96500;;;-14.15538;46.19817
31162;BME280;17796;49.296;-117.656;2023-02-23T14:31:33;96500;;;-15.65052;47.52487
31162;BME280;17796;49.296;-117.656;2023-02-23T14:46:36;96500;;;-15.21364;42.19011
31162;BME280;17796;49.296;-117.656;2023-02-23T15:01:48;96500;;;-15.72323;43.85399
31162;BME280;17796;49.296;-117.656;2023-02-23T15:16:52;96500;;;-14.8539;42.03717
31162;BME280;17796;49.296;-117.656;2023-02-23T15:32:09;96500;;;-14.29445;40.34042
31162;BME280;17796;49.296;-117.656;2023-02-23T15:47:16;96500;;;-14.87644;40.52924
31162;BME280;17796;49.296;-117.656;2023-02-23T16:02:23;96600;;;-14.01853;38.0262
31162;BME280;17796;49.296;-117.656;2023-02-23T16:17:29;96600;;;-14.17951;38.12097
31162;BME280;17796;49.296;-117.656;2023-02-23T16:32:42;96600;;;-12.9412;34.54581
31162;BME280;17796;49.296;-117.656;2023-02-23T16:47:46;96600;;;-10.73317;31.51799
31162;BME280;17796;49.296;-117.656;2023-02-23T17:02:50;96600;;;-11.5184;31.28767
31162;BME280;17796;49.296;-117.656;2023-02-23T17:17:54;96600;;;-11.2701;31.24772
31162;BME280;17796;49.296;-117.656;2023-02-23T17:32:58;96600;;;-11.42632;31.51311
31162;BME280;17796;49.296;-117.656;2023-02-23T17:48:03;96600;;;-10.68649;29.62824
31162;BME280;17796;49.296;-117.656;2023-02-23T18:03:07;96600;;;-8.36981;29.15122
31162;BME280;17796;49.296;-117.656;2023-02-23T18:18:11;96600;;;-9.97937;30.95991
31162;BME280;17796;49.296;-117.656;2023-02-23T18:33:15;96600;;;-8.73656;30.03564
31162;BME280;17796;49.296;-117.656;2023-02-23T18:48:19;96600;;;-8.49746;27.19279
31162;BME280;17796;49.296;-117.656;2023-02-23T19:03:23;96600;;;-10.10923;29.55024
31162;BME280;17796;49.296;-117.656;2023-02-23T19:18:26;96500;;;-9.08806;25.23492
31162;BME280;17796;49.296;-117.656;2023-02-23T19:33:30;96500;;;-8.99534;31.56194
31162;BME280;17796;49.296;-117.656;2023-02-23T19:48:39;96500;;;-9.53324;32.74636
31162;BME280;17796;49.296;-117.656;2023-02-23T20:03:44;96500;;;-10.07526;36.33511
31162;BME280;17796;49.296;-117.656;2023-02-23T20:18:50;96500;;;-10.14607;36.15684
31162;BME280;17796;49.296;-117.656;2023-02-23T20:33:55;96500;;;-9.63898;35.69327
31162;BME280;17796;49.296;-117.656;2023-02-23T20:49:02;96500;;;-9.86791;29.56317
31162;BME280;17796;49.296;-117.656;2023-02-23T21:04:06;96500;;;-8.79276;33.87956
31162;BME280;17796;49.296;-117.656;2023-02-23T21:19:10;96500;;;-8.97947;34.51375
31162;BME280;17796;49.296;-117.656;2023-02-23T21:34:14;96500;;;-7.74173;34.17421
31162;BME280;17796;49.296;-117.656;2023-02-23T21:49:18;96500;;;-8.27836;37.06013
31162;BME280;17796;49.296;-117.656;2023-02-23T22:04:22;96500;;;-8.57303;35.1577
31162;BME280;17796;49.296;-117.656;2023-02-23T22:19:26;96500;;;-9.63199;33.769
31162;BME280;17796;49.296;-117.656;2023-02-23T22:34:30;96500;;;-9.28652;34.70915
31162;BME280;17796;49.296;-117.656;2023-02-23T22:49:34;96500;;;-8.25073;33.17216
31162;BME280;17796;49.296;-117.656;2023-02-23T23:04:37;96500;;;-8.86103;32.14062
31162;BME280;17796;49.296;-117.656;2023-02-23T23:19:43;96500;;;-8.20152;37.21218
31162;BME280;17796;49.296;-117.656;2023-02-23T23:34:47;96500;;;-9.84664;37.02684
31162;BME280;17796;49.296;-117.656;2023-02-23T23:49:53;96500;;;-9.38845;36.42877
